SPHY

Andahuaylas Airport

Andahuaylas, Peru
SPHY 201700Z 2018/2118 36010KT CAVOK TX17/2019Z TNM04/2111Z BECMG 2022/2100 00000KT
Issued Valid From Valid To
Jun-20 @ 17:00 UTC
(17 hours ago)
Jun-20 @ 18:00 UTC
(16 hours ago)
Jun-21 @ 18:00 UTC
(in 8 hours)
Expired Click to View Jun-20 @ 18:00 to Jun-20 @ 22:00
SPHY 201700Z 2018/2118 36010KT CAVOK TX17/2019Z TNM04/2111Z
Wind Visibility Clouds
360° at 10 knots 10,000+ meters
  • No significant clouds
Becoming Jun-20 @ 22:00 to Jun-21 @ 18:00
BECMG 2022/2100 00000KT
Visibility Clouds
10,000+ meters
  • No significant clouds
SPHY 201700Z 2018/2118 36010KT CAVOK TX17/2019Z TNM04/2111Z BECMG 2022/2100 00000KT
Issued Jun-20 @ 17:00 UTC
(17 hours ago)
Valid From Jun-20 @ 18:00 UTC
(16 hours ago)
Valid To Jun-21 @ 18:00 UTC
(in 8 hours)
Jun-20 @ 18:00 - Jun-20 @ 22:00
Wind Visibility
360° at 10 knots 10,000+ meters
Clouds
  • No significant clouds
Becoming Jun-20 @ 22:00 - Jun-21 @ 18:00
Clouds
  • No significant clouds